sensor_id;sensor_type;location;lat;lon;timestamp;P1;durP1;ratioP1;P2;durP2;ratioP2
64199;SDS011;50516;52.272;5.136;2023-12-22T00:02:03;8.77;;;2.30;;
64199;SDS011;50516;52.272;5.136;2023-12-22T00:04:28;18.05;;;3.50;;
64199;SDS011;50516;52.272;5.136;2023-12-22T00:06:54;11.32;;;2.58;;
64199;SDS011;50516;52.272;5.136;2023-12-22T00:09:19;9.60;;;2.95;;
64199;SDS011;50516;52.272;5.136;2023-12-22T00:11:45;17.23;;;2.95;;
64199;SDS011;50516;52.272;5.136;2023-12-22T00:14:10;18.15;;;3.75;;
64199;SDS011;50516;52.272;5.136;2023-12-22T00:16:36;14.50;;;4.93;;
64199;SDS011;50516;52.272;5.136;2023-12-22T00:19:02;15.65;;;3.70;;
64199;SDS011;50516;52.272;5.136;2023-12-22T00:21:27;13.95;;;4.10;;
64199;SDS011;50516;52.272;5.136;2023-12-22T00:23:53;14.90;;;2.65;;
64199;SDS011;50516;52.272;5.136;2023-12-22T00:26:19;15.60;;;2.25;;
64199;SDS011;50516;52.272;5.136;2023-12-22T00:28:44;9.13;;;3.00;;
64199;SDS011;50516;52.272;5.136;2023-12-22T00:31:10;11.70;;;2.85;;
64199;SDS011;50516;52.272;5.136;2023-12-22T00:33:37;15.65;;;3.08;;
64199;SDS011;50516;52.272;5.136;2023-12-22T00:36:02;16.48;;;3.72;;
64199;SDS011;50516;52.272;5.136;2023-12-22T00:38:28;11.77;;;2.90;;
64199;SDS011;50516;52.272;5.136;2023-12-22T00:40:53;14.40;;;2.55;;
64199;SDS011;50516;52.272;5.136;2023-12-22T00:43:19;13.10;;;2.75;;
64199;SDS011;50516;52.272;5.136;2023-12-22T00:45:44;18.30;;;2.90;;
64199;SDS011;50516;52.272;5.136;2023-12-22T00:48:09;9.30;;;2.53;;
64199;SDS011;50516;52.272;5.136;2023-12-22T00:50:35;10.50;;;2.58;;
64199;SDS011;50516;52.272;5.136;2023-12-22T00:53:00;12.82;;;2.83;;
64199;SDS011;50516;52.272;5.136;2023-12-22T00:55:25;10.27;;;2.83;;
64199;SDS011;50516;52.272;5.136;2023-12-22T00:57:50;11.75;;;3.25;;
64199;SDS011;50516;52.272;5.136;2023-12-22T01:00:16;10.48;;;2.20;;
64199;SDS011;50516;52.272;5.136;2023-12-22T01:02:41;19.30;;;5.63;;
64199;SDS011;50516;52.272;5.136;2023-12-22T01:05:07;12.23;;;3.72;;
64199;SDS011;50516;52.272;5.136;2023-12-22T01:07:32;10.85;;;2.65;;
64199;SDS011;50516;52.272;5.136;2023-12-22T01:09:57;16.27;;;4.60;;
64199;SDS011;50516;52.272;5.136;2023-12-22T01:12:27;16.73;;;3.30;;
64199;SDS011;50516;52.272;5.136;2023-12-22T01:14:53;13.10;;;2.95;;
64199;SDS011;50516;52.272;5.136;2023-12-22T01:17:19;14.95;;;5.05;;
64199;SDS011;50516;52.272;5.136;2023-12-22T01:19:44;24.10;;;3.30;;
64199;SDS011;50516;52.272;5.136;2023-12-22T01:22:10;10.07;;;2.40;;
64199;SDS011;50516;52.272;5.136;2023-12-22T01:24:35;15.93;;;3.97;;
64199;SDS011;50516;52.272;5.136;2023-12-22T01:27:04;11.90;;;3.67;;
64199;SDS011;50516;52.272;5.136;2023-12-22T01:29:30;14.02;;;3.38;;
64199;SDS011;50516;52.272;5.136;2023-12-22T01:31:55;16.23;;;3.25;;
64199;SDS011;50516;52.272;5.136;2023-12-22T01:34:20;14.68;;;3.35;;
64199;SDS011;50516;52.272;5.136;2023-12-22T01:36:45;21.00;;;4.78;;
64199;SDS011;50516;52.272;5.136;2023-12-22T01:39:11;16.73;;;3.38;;
64199;SDS011;50516;52.272;5.136;2023-12-22T01:41:36;14.45;;;4.10;;
64199;SDS011;50516;52.272;5.136;2023-12-22T01:44:01;10.75;;;3.05;;
64199;SDS011;50516;52.272;5.136;2023-12-22T01:46:27;17.60;;;3.33;;
64199;SDS011;50516;52.272;5.136;2023-12-22T01:48:52;18.42;;;4.35;;
64199;SDS011;50516;52.272;5.136;2023-12-22T01:51:17;17.52;;;3.22;;
64199;SDS011;50516;52.272;5.136;2023-12-22T01:53:44;20.40;;;4.03;;
64199;SDS011;50516;52.272;5.136;2023-12-22T01:56:10;21.10;;;3.60;;
64199;SDS011;50516;52.272;5.136;2023-12-22T01:58:36;19.83;;;3.78;;
64199;SDS011;50516;52.272;5.136;2023-12-22T02:01:02;17.80;;;3.67;;
64199;SDS011;50516;52.272;5.136;2023-12-22T02:03:28;13.55;;;3.35;;
64199;SDS011;50516;52.272;5.136;2023-12-22T02:05:55;24.30;;;4.63;;
64199;SDS011;50516;52.272;5.136;2023-12-22T02:08:21;19.48;;;4.55;;
64199;SDS011;50516;52.272;5.136;2023-12-22T02:10:49;24.33;;;6.32;;
64199;SDS011;50516;52.272;5.136;2023-12-22T02:13:14;21.00;;;5.63;;
64199;SDS011;50516;52.272;5.136;2023-12-22T02:15:40;20.70;;;4.32;;
64199;SDS011;50516;52.272;5.136;2023-12-22T02:18:16;15.10;;;3.53;;
64199;SDS011;50516;52.272;5.136;2023-12-22T02:20:49;29.33;;;4.05;;
64199;SDS011;50516;52.272;5.136;2023-12-22T02:23:15;35.47;;;6.05;;
64199;SDS011;50516;52.272;5.136;2023-12-22T02:25:40;23.55;;;5.15;;
64199;SDS011;50516;52.272;5.136;2023-12-22T02:28:13;29.83;;;6.80;;
64199;SDS011;50516;52.272;5.136;2023-12-22T02:33:31;35.33;;;5.40;;
64199;SDS011;50516;52.272;5.136;2023-12-22T02:36:03;34.47;;;6.43;;
64199;SDS011;50516;52.272;5.136;2023-12-22T02:38:29;25.98;;;6.35;;
64199;SDS011;50516;52.272;5.136;2023-12-22T02:40:56;22.50;;;5.28;;
64199;SDS011;50516;52.272;5.136;2023-12-22T02:43:22;25.85;;;6.70;;
64199;SDS011;50516;52.272;5.136;2023-12-22T02:45:50;23.95;;;4.68;;
64199;SDS011;50516;52.272;5.136;2023-12-22T02:48:16;22.23;;;4.50;;
64199;SDS011;50516;52.272;5.136;2023-12-22T02:50:42;23.55;;;5.45;;
64199;SDS011;50516;52.272;5.136;2023-12-22T02:53:07;27.55;;;5.15;;
64199;SDS011;50516;52.272;5.136;2023-12-22T02:55:32;29.83;;;5.82;;
64199;SDS011;50516;52.272;5.136;2023-12-22T02:57:58;24.63;;;4.47;;
64199;SDS011;50516;52.272;5.136;2023-12-22T03:00:23;13.70;;;4.65;;
64199;SDS011;50516;52.272;5.136;2023-12-22T03:02:49;26.60;;;5.20;;
64199;SDS011;50516;52.272;5.136;2023-12-22T03:05:14;22.60;;;6.07;;
64199;SDS011;50516;52.272;5.136;2023-12-22T03:07:39;26.25;;;4.95;;
64199;SDS011;50516;52.272;5.136;2023-12-22T03:10:05;23.20;;;4.95;;
64199;SDS011;50516;52.272;5.136;2023-12-22T03:12:31;24.73;;;4.78;;
64199;SDS011;50516;52.272;5.136;2023-12-22T03:14:56;24.67;;;4.72;;
64199;SDS011;50516;52.272;5.136;2023-12-22T03:17:21;23.02;;;4.85;;
64199;SDS011;50516;52.272;5.136;2023-12-22T03:19:47;25.30;;;6.53;;
64199;SDS011;50516;52.272;5.136;2023-12-22T03:22:12;29.17;;;5.68;;
64199;SDS011;50516;52.272;5.136;2023-12-22T03:24:37;22.23;;;4.40;;
64199;SDS011;50516;52.272;5.136;2023-12-22T03:27:03;23.08;;;4.93;;
64199;SDS011;50516;52.272;5.136;2023-12-22T03:29:29;28.23;;;6.47;;
64199;SDS011;50516;52.272;5.136;2023-12-22T03:31:54;15.98;;;3.53;;
64199;SDS011;50516;52.272;5.136;2023-12-22T03:34:19;15.88;;;2.83;;
64199;SDS011;50516;52.272;5.136;2023-12-22T03:36:45;19.90;;;5.30;;
64199;SDS011;50516;52.272;5.136;2023-12-22T03:39:13;10.30;;;2.42;;
64199;SDS011;50516;52.272;5.136;2023-12-22T03:41:39;13.05;;;2.92;;
64199;SDS011;50516;52.272;5.136;2023-12-22T03:44:05;10.73;;;2.70;;
64199;SDS011;50516;52.272;5.136;2023-12-22T03:46:30;11.18;;;2.50;;
64199;SDS011;50516;52.272;5.136;2023-12-22T03:48:55;11.00;;;2.85;;
64199;SDS011;50516;52.272;5.136;2023-12-22T03:51:20;12.18;;;3.10;;
64199;SDS011;50516;52.272;5.136;2023-12-22T03:53:46;16.80;;;2.50;;
64199;SDS011;50516;52.272;5.136;2023-12-22T03:56:11;15.50;;;3.00;;
64199;SDS011;50516;52.272;5.136;2023-12-22T03:58:37;9.07;;;2.60;;
64199;SDS011;50516;52.272;5.136;2023-12-22T04:01:03;10.88;;;2.72;;
64199;SDS011;50516;52.272;5.136;2023-12-22T04:03:28;15.82;;;3.53;;
64199;SDS011;50516;52.272;5.136;2023-12-22T04:05:54;17.80;;;2.88;;
64199;SDS011;50516;52.272;5.136;2023-12-22T04:08:19;19.92;;;4.07;;
64199;SDS011;50516;52.272;5.136;2023-12-22T04:10:45;19.98;;;5.00;;
64199;SDS011;50516;52.272;5.136;2023-12-22T04:13:11;14.70;;;3.92;;
64199;SDS011;50516;52.272;5.136;2023-12-22T04:15:36;24.48;;;4.32;;
64199;SDS011;50516;52.272;5.136;2023-12-22T04:18:02;23.10;;;5.03;;
64199;SDS011;50516;52.272;5.136;2023-12-22T04:20:27;28.65;;;7.03;;
64199;SDS011;50516;52.272;5.136;2023-12-22T04:22:52;22.83;;;4.47;;
64199;SDS011;50516;52.272;5.136;2023-12-22T04:25:18;32.05;;;5.82;;
64199;SDS011;50516;52.272;5.136;2023-12-22T04:27:43;19.15;;;3.88;;
64199;SDS011;50516;52.272;5.136;2023-12-22T04:30:09;16.15;;;4.45;;
64199;SDS011;50516;52.272;5.136;2023-12-22T04:32:35;20.42;;;4.57;;
64199;SDS011;50516;52.272;5.136;2023-12-22T04:35:00;26.70;;;4.53;;
64199;SDS011;50516;52.272;5.136;2023-12-22T04:37:26;25.20;;;5.53;;
64199;SDS011;50516;52.272;5.136;2023-12-22T04:39:51;23.25;;;5.07;;
64199;SDS011;50516;52.272;5.136;2023-12-22T04:42:16;24.15;;;4.60;;
64199;SDS011;50516;52.272;5.136;2023-12-22T04:44:42;32.22;;;4.55;;
64199;SDS011;50516;52.272;5.136;2023-12-22T04:47:07;25.00;;;4.90;;
64199;SDS011;50516;52.272;5.136;2023-12-22T04:49:32;42.00;;;6.50;;
64199;SDS011;50516;52.272;5.136;2023-12-22T04:51:57;30.30;;;5.80;;
64199;SDS011;50516;52.272;5.136;2023-12-22T04:54:23;23.58;;;5.32;;
64199;SDS011;50516;52.272;5.136;2023-12-22T04:56:48;21.80;;;5.13;;
64199;SDS011;50516;52.272;5.136;2023-12-22T04:59:13;31.60;;;7.40;;
64199;SDS011;50516;52.272;5.136;2023-12-22T05:01:39;24.50;;;5.63;;
64199;SDS011;50516;52.272;5.136;2023-12-22T05:04:04;25.95;;;4.93;;
64199;SDS011;50516;52.272;5.136;2023-12-22T05:06:29;34.22;;;5.50;;
64199;SDS011;50516;52.272;5.136;2023-12-22T05:08:55;25.95;;;4.75;;
64199;SDS011;50516;52.272;5.136;2023-12-22T05:11:21;21.83;;;4.45;;
64199;SDS011;50516;52.272;5.136;2023-12-22T05:13:47;18.55;;;3.38;;
64199;SDS011;50516;52.272;5.136;2023-12-22T05:16:12;23.83;;;5.00;;
64199;SDS011;50516;52.272;5.136;2023-12-22T05:18:38;19.35;;;4.45;;
64199;SDS011;50516;52.272;5.136;2023-12-22T05:21:04;18.60;;;3.97;;
64199;SDS011;50516;52.272;5.136;2023-12-22T05:23:29;19.77;;;4.00;;
64199;SDS011;50516;52.272;5.136;2023-12-22T05:25:54;24.70;;;4.72;;
64199;SDS011;50516;52.272;5.136;2023-12-22T05:28:20;13.93;;;3.60;;
64199;SDS011;50516;52.272;5.136;2023-12-22T05:30:45;17.67;;;4.07;;
64199;SDS011;50516;52.272;5.136;2023-12-22T05:33:10;22.77;;;4.93;;
64199;SDS011;50516;52.272;5.136;2023-12-22T05:35:36;19.13;;;3.92;;
64199;SDS011;50516;52.272;5.136;2023-12-22T05:38:01;24.00;;;4.95;;
64199;SDS011;50516;52.272;5.136;2023-12-22T05:40:26;22.33;;;5.10;;
64199;SDS011;50516;52.272;5.136;2023-12-22T05:42:52;12.48;;;3.80;;
64199;SDS011;50516;52.272;5.136;2023-12-22T05:45:17;18.80;;;3.97;;
64199;SDS011;50516;52.272;5.136;2023-12-22T05:47:43;23.05;;;4.15;;
64199;SDS011;50516;52.272;5.136;2023-12-22T05:50:08;15.63;;;3.60;;
64199;SDS011;50516;52.272;5.136;2023-12-22T05:52:35;13.82;;;3.50;;
64199;SDS011;50516;52.272;5.136;2023-12-22T05:55:01;22.55;;;4.75;;
64199;SDS011;50516;52.272;5.136;2023-12-22T05:57:26;14.02;;;3.67;;
64199;SDS011;50516;52.272;5.136;2023-12-22T05:59:51;20.55;;;4.97;;
64199;SDS011;50516;52.272;5.136;2023-12-22T06:02:16;27.77;;;6.18;;
64199;SDS011;50516;52.272;5.136;2023-12-22T06:04:42;22.48;;;4.70;;
64199;SDS011;50516;52.272;5.136;2023-12-22T06:07:08;24.60;;;4.85;;
64199;SDS011;50516;52.272;5.136;2023-12-22T06:09:33;18.88;;;4.20;;
64199;SDS011;50516;52.272;5.136;2023-12-22T06:11:59;18.38;;;4.72;;
64199;SDS011;50516;52.272;5.136;2023-12-22T06:14:25;20.35;;;4.53;;
64199;SDS011;50516;52.272;5.136;2023-12-22T06:16:50;18.95;;;4.05;;
64199;SDS011;50516;52.272;5.136;2023-12-22T06:19:16;20.23;;;3.90;;
64199;SDS011;50516;52.272;5.136;2023-12-22T06:21:41;19.42;;;4.15;;
64199;SDS011;50516;52.272;5.136;2023-12-22T06:24:07;19.63;;;4.03;;
64199;SDS011;50516;52.272;5.136;2023-12-22T06:26:33;27.27;;;5.63;;
64199;SDS011;50516;52.272;5.136;2023-12-22T06:28:58;28.90;;;5.53;;
64199;SDS011;50516;52.272;5.136;2023-12-22T06:31:24;18.92;;;4.80;;
64199;SDS011;50516;52.272;5.136;2023-12-22T06:33:50;23.65;;;5.10;;
64199;SDS011;50516;52.272;5.136;2023-12-22T06:36:23;29.50;;;5.80;;
64199;SDS011;50516;52.272;5.136;2023-12-22T06:38:50;23.20;;;5.32;;
64199;SDS011;50516;52.272;5.136;2023-12-22T06:41:22;25.35;;;5.10;;
64199;SDS011;50516;52.272;5.136;2023-12-22T06:43:48;17.42;;;5.68;;
64199;SDS011;50516;52.272;5.136;2023-12-22T06:46:14;21.73;;;4.93;;
64199;SDS011;50516;52.272;5.136;2023-12-22T06:48:41;20.50;;;4.78;;
64199;SDS011;50516;52.272;5.136;2023-12-22T06:51:06;27.40;;;4.80;;
64199;SDS011;50516;52.272;5.136;2023-12-22T06:53:32;28.38;;;5.82;;
64199;SDS011;50516;52.272;5.136;2023-12-22T06:55:57;31.88;;;5.60;;
64199;SDS011;50516;52.272;5.136;2023-12-22T06:58:22;22.88;;;5.70;;
64199;SDS011;50516;52.272;5.136;2023-12-22T07:00:50;24.90;;;5.93;;
64199;SDS011;50516;52.272;5.136;2023-12-22T07:03:16;29.20;;;5.30;;
64199;SDS011;50516;52.272;5.136;2023-12-22T07:05:42;24.38;;;6.78;;
64199;SDS011;50516;52.272;5.136;2023-12-22T07:08:07;29.85;;;5.63;;
64199;SDS011;50516;52.272;5.136;2023-12-22T07:10:33;43.65;;;8.70;;
64199;SDS011;50516;52.272;5.136;2023-12-22T07:12:58;30.42;;;6.75;;
64199;SDS011;50516;52.272;5.136;2023-12-22T07:15:24;29.98;;;6.10;;
64199;SDS011;50516;52.272;5.136;2023-12-22T07:17:49;30.13;;;6.88;;
64199;SDS011;50516;52.272;5.136;2023-12-22T07:20:14;26.77;;;6.93;;
64199;SDS011;50516;52.272;5.136;2023-12-22T07:22:40;24.52;;;6.85;;
64199;SDS011;50516;52.272;5.136;2023-12-22T07:25:05;45.80;;;8.35;;
64199;SDS011;50516;52.272;5.136;2023-12-22T07:27:32;34.75;;;7.05;;
64199;SDS011;50516;52.272;5.136;2023-12-22T07:29:57;34.42;;;6.68;;
64199;SDS011;50516;52.272;5.136;2023-12-22T07:32:23;41.70;;;7.03;;
64199;SDS011;50516;52.272;5.136;2023-12-22T07:34:48;29.05;;;6.38;;
64199;SDS011;50516;52.272;5.136;2023-12-22T07:37:14;25.85;;;5.22;;
64199;SDS011;50516;52.272;5.136;2023-12-22T07:39:39;27.25;;;5.95;;
64199;SDS011;50516;52.272;5.136;2023-12-22T07:42:04;30.48;;;6.60;;
64199;SDS011;50516;52.272;5.136;2023-12-22T07:44:31;28.50;;;6.82;;
64199;SDS011;50516;52.272;5.136;2023-12-22T07:46:57;30.75;;;7.10;;
64199;SDS011;50516;52.272;5.136;2023-12-22T07:49:23;36.08;;;6.75;;
64199;SDS011;50516;52.272;5.136;2023-12-22T07:51:50;38.35;;;6.40;;
64199;SDS011;50516;52.272;5.136;2023-12-22T07:54:17;46.78;;;7.90;;
64199;SDS011;50516;52.272;5.136;2023-12-22T07:56:43;33.05;;;8.30;;
64199;SDS011;50516;52.272;5.136;2023-12-22T07:59:08;32.17;;;6.20;;
64199;SDS011;50516;52.272;5.136;2023-12-22T08:01:33;37.00;;;8.68;;
64199;SDS011;50516;52.272;5.136;2023-12-22T08:03:59;36.95;;;7.95;;
64199;SDS011;50516;52.272;5.136;2023-12-22T08:06:24;33.13;;;7.25;;
64199;SDS011;50516;52.272;5.136;2023-12-22T08:08:49;30.35;;;6.28;;
64199;SDS011;50516;52.272;5.136;2023-12-22T08:11:15;27.02;;;5.72;;
64199;SDS011;50516;52.272;5.136;2023-12-22T08:13:40;20.75;;;5.63;;
64199;SDS011;50516;52.272;5.136;2023-12-22T08:16:05;33.05;;;5.82;;
64199;SDS011;50516;52.272;5.136;2023-12-22T08:18:31;22.95;;;6.65;;
64199;SDS011;50516;52.272;5.136;2023-12-22T08:20:56;21.73;;;4.65;;
64199;SDS011;50516;52.272;5.136;2023-12-22T08:23:21;22.52;;;4.35;;
64199;SDS011;50516;52.272;5.136;2023-12-22T08:25:47;21.10;;;5.80;;
64199;SDS011;50516;52.272;5.136;2023-12-22T08:28:13;22.92;;;5.95;;
64199;SDS011;50516;52.272;5.136;2023-12-22T08:30:38;28.73;;;5.78;;
64199;SDS011;50516;52.272;5.136;2023-12-22T08:33:03;19.45;;;4.68;;
64199;SDS011;50516;52.272;5.136;2023-12-22T08:35:29;28.30;;;6.80;;
64199;SDS011;50516;52.272;5.136;2023-12-22T08:37:55;20.55;;;4.18;;
64199;SDS011;50516;52.272;5.136;2023-12-22T08:40:20;29.20;;;5.97;;
64199;SDS011;50516;52.272;5.136;2023-12-22T08:42:51;33.17;;;5.93;;
64199;SDS011;50516;52.272;5.136;2023-12-22T08:45:19;22.13;;;4.70;;
64199;SDS011;50516;52.272;5.136;2023-12-22T08:47:45;32.50;;;5.38;;
64199;SDS011;50516;52.272;5.136;2023-12-22T08:50:11;28.85;;;6.93;;
64199;SDS011;50516;52.272;5.136;2023-12-22T08:52:37;26.77;;;5.25;;
64199;SDS011;50516;52.272;5.136;2023-12-22T08:55:03;29.95;;;6.60;;
64199;SDS011;50516;52.272;5.136;2023-12-22T08:57:30;25.90;;;5.07;;
64199;SDS011;50516;52.272;5.136;2023-12-22T08:59:56;18.85;;;5.07;;
64199;SDS011;50516;52.272;5.136;2023-12-22T09:02:22;19.83;;;4.15;;
64199;SDS011;50516;52.272;5.136;2023-12-22T09:04:47;24.17;;;6.28;;
64199;SDS011;50516;52.272;5.136;2023-12-22T09:07:12;11.32;;;3.80;;
64199;SDS011;50516;52.272;5.136;2023-12-22T09:09:38;19.77;;;4.65;;
64199;SDS011;50516;52.272;5.136;2023-12-22T09:12:03;29.90;;;4.25;;
64199;SDS011;50516;52.272;5.136;2023-12-22T09:14:29;14.88;;;3.88;;
64199;SDS011;50516;52.272;5.136;2023-12-22T09:16:55;10.73;;;3.15;;
64199;SDS011;50516;52.272;5.136;2023-12-22T09:19:21;11.60;;;2.58;;
64199;SDS011;50516;52.272;5.136;2023-12-22T09:21:46;7.95;;;2.10;;
64199;SDS011;50516;52.272;5.136;2023-12-22T09:24:12;4.70;;;1.73;;
64199;SDS011;50516;52.272;5.136;2023-12-22T09:26:37;7.38;;;2.95;;
64199;SDS011;50516;52.272;5.136;2023-12-22T09:29:02;10.50;;;1.92;;
64199;SDS011;50516;52.272;5.136;2023-12-22T09:31:28;9.20;;;2.00;;
64199;SDS011;50516;52.272;5.136;2023-12-22T09:33:53;4.93;;;1.98;;
64199;SDS011;50516;52.272;5.136;2023-12-22T09:36:18;14.10;;;3.53;;
64199;SDS011;50516;52.272;5.136;2023-12-22T09:38:44;15.18;;;3.20;;
64199;SDS011;50516;52.272;5.136;2023-12-22T09:41:09;12.85;;;4.00;;
64199;SDS011;50516;52.272;5.136;2023-12-22T09:43:35;15.55;;;3.97;;
64199;SDS011;50516;52.272;5.136;2023-12-22T09:46:04;16.85;;;3.90;;
64199;SDS011;50516;52.272;5.136;2023-12-22T09:48:32;25.77;;;4.55;;
64199;SDS011;50516;52.272;5.136;2023-12-22T09:51:00;16.55;;;3.67;;
64199;SDS011;50516;52.272;5.136;2023-12-22T09:53:27;16.73;;;3.90;;
64199;SDS011;50516;52.272;5.136;2023-12-22T09:55:56;19.98;;;3.85;;
64199;SDS011;50516;52.272;5.136;2023-12-22T09:58:23;13.25;;;3.72;;
64199;SDS011;50516;52.272;5.136;2023-12-22T10:00:48;14.38;;;4.05;;
64199;SDS011;50516;52.272;5.136;2023-12-22T10:03:16;13.45;;;3.47;;
64199;SDS011;50516;52.272;5.136;2023-12-22T10:05:41;16.13;;;2.80;;
64199;SDS011;50516;52.272;5.136;2023-12-22T10:08:08;13.68;;;3.35;;
64199;SDS011;50516;52.272;5.136;2023-12-22T10:10:38;15.05;;;3.45;;
64199;SDS011;50516;52.272;5.136;2023-12-22T10:13:05;17.88;;;4.65;;
64199;SDS011;50516;52.272;5.136;2023-12-22T10:15:34;14.65;;;4.07;;
64199;SDS011;50516;52.272;5.136;2023-12-22T10:18:05;13.82;;;3.22;;
64199;SDS011;50516;52.272;5.136;2023-12-22T10:20:31;16.25;;;4.10;;
64199;SDS011;50516;52.272;5.136;2023-12-22T10:22:57;12.05;;;3.65;;
64199;SDS011;50516;52.272;5.136;2023-12-22T10:25:27;17.05;;;3.63;;
64199;SDS011;50516;52.272;5.136;2023-12-22T10:27:54;25.30;;;4.07;;
64199;SDS011;50516;52.272;5.136;2023-12-22T10:30:19;15.57;;;3.08;;
64199;SDS011;50516;52.272;5.136;2023-12-22T10:32:46;12.07;;;4.78;;
64199;SDS011;50516;52.272;5.136;2023-12-22T10:35:11;19.23;;;3.55;;
64199;SDS011;50516;52.272;5.136;2023-12-22T10:37:37;12.80;;;3.88;;
64199;SDS011;50516;52.272;5.136;2023-12-22T10:40:06;15.18;;;3.50;;
64199;SDS011;50516;52.272;5.136;2023-12-22T10:42:34;11.88;;;4.00;;
64199;SDS011;50516;52.272;5.136;2023-12-22T10:45:00;11.95;;;3.20;;
64199;SDS011;50516;52.272;5.136;2023-12-22T10:47:26;12.95;;;3.35;;
64199;SDS011;50516;52.272;5.136;2023-12-22T10:49:53;10.48;;;2.90;;
64199;SDS011;50516;52.272;5.136;2023-12-22T10:52:18;18.35;;;3.45;;
64199;SDS011;50516;52.272;5.136;2023-12-22T10:54:45;12.32;;;3.17;;
64199;SDS011;50516;52.272;5.136;2023-12-22T10:57:11;9.52;;;2.50;;
64199;SDS011;50516;52.272;5.136;2023-12-22T10:59:39;20.15;;;3.28;;
64199;SDS011;50516;52.272;5.136;2023-12-22T11:02:11;15.50;;;3.28;;
64199;SDS011;50516;52.272;5.136;2023-12-22T11:05:04;22.23;;;4.20;;
64199;SDS011;50516;52.272;5.136;2023-12-22T11:07:35;14.32;;;3.22;;
64199;SDS011;50516;52.272;5.136;2023-12-22T11:10:03;12.48;;;2.55;;
64199;SDS011;50516;52.272;5.136;2023-12-22T11:12:31;9.88;;;3.17;;
64199;SDS011;50516;52.272;5.136;2023-12-22T11:14:58;13.88;;;3.10;;
64199;SDS011;50516;52.272;5.136;2023-12-22T11:17:25;14.90;;;3.20;;
64199;SDS011;50516;52.272;5.136;2023-12-22T11:19:53;25.48;;;3.97;;
64199;SDS011;50516;52.272;5.136;2023-12-22T11:22:19;12.02;;;3.03;;
64199;SDS011;50516;52.272;5.136;2023-12-22T11:24:47;15.48;;;4.18;;
64199;SDS011;50516;52.272;5.136;2023-12-22T11:27:15;12.80;;;3.67;;
64199;SDS011;50516;52.272;5.136;2023-12-22T11:29:42;16.63;;;3.45;;
64199;SDS011;50516;52.272;5.136;2023-12-22T11:32:10;22.95;;;4.57;;
64199;SDS011;50516;52.272;5.136;2023-12-22T11:34:36;11.13;;;3.85;;
64199;SDS011;50516;52.272;5.136;2023-12-22T11:37:03;14.32;;;4.32;;
64199;SDS011;50516;52.272;5.136;2023-12-22T11:39:28;19.83;;;3.75;;
64199;SDS011;50516;52.272;5.136;2023-12-22T11:41:55;10.93;;;4.13;;
64199;SDS011;50516;52.272;5.136;2023-12-22T11:44:21;11.45;;;3.13;;
64199;SDS011;50516;52.272;5.136;2023-12-22T11:46:47;13.48;;;3.47;;
64199;SDS011;50516;52.272;5.136;2023-12-22T11:49:13;13.90;;;3.78;;
64199;SDS011;50516;52.272;5.136;2023-12-22T11:51:38;17.55;;;3.15;;
64199;SDS011;50516;52.272;5.136;2023-12-22T11:54:04;16.67;;;2.92;;
64199;SDS011;50516;52.272;5.136;2023-12-22T11:57:25;13.82;;;3.33;;
64199;SDS011;50516;52.272;5.136;2023-12-22T11:59:56;21.77;;;5.25;;
64199;SDS011;50516;52.272;5.136;2023-12-22T12:02:23;19.02;;;4.97;;
64199;SDS011;50516;52.272;5.136;2023-12-22T12:04:49;18.17;;;4.85;;
64199;SDS011;50516;52.272;5.136;2023-12-22T12:10:06;21.88;;;3.72;;
64199;SDS011;50516;52.272;5.136;2023-12-22T12:12:32;14.65;;;3.75;;
64199;SDS011;50516;52.272;5.136;2023-12-22T12:15:01;12.65;;;4.18;;
64199;SDS011;50516;52.272;5.136;2023-12-22T12:17:33;9.30;;;3.00;;
64199;SDS011;50516;52.272;5.136;2023-12-22T12:20:04;17.65;;;3.42;;
64199;SDS011;50516;52.272;5.136;2023-12-22T12:22:30;11.98;;;3.13;;
64199;SDS011;50516;52.272;5.136;2023-12-22T12:24:56;12.05;;;3.83;;
64199;SDS011;50516;52.272;5.136;2023-12-22T12:27:22;10.80;;;2.97;;
64199;SDS011;50516;52.272;5.136;2023-12-22T12:29:47;11.50;;;2.92;;
64199;SDS011;50516;52.272;5.136;2023-12-22T12:32:15;17.23;;;4.13;;
64199;SDS011;50516;52.272;5.136;2023-12-22T12:34:42;12.23;;;3.70;;
64199;SDS011;50516;52.272;5.136;2023-12-22T12:37:08;20.90;;;4.63;;
64199;SDS011;50516;52.272;5.136;2023-12-22T12:39:34;13.80;;;3.30;;
64199;SDS011;50516;52.272;5.136;2023-12-22T12:42:00;12.77;;;2.85;;
64199;SDS011;50516;52.272;5.136;2023-12-22T12:44:28;15.13;;;4.32;;
64199;SDS011;50516;52.272;5.136;2023-12-22T12:46:57;16.85;;;4.53;;
64199;SDS011;50516;52.272;5.136;2023-12-22T12:49:23;11.73;;;3.33;;
64199;SDS011;50516;52.272;5.136;2023-12-22T12:51:52;15.85;;;4.18;;
64199;SDS011;50516;52.272;5.136;2023-12-22T12:54:18;13.02;;;3.38;;
64199;SDS011;50516;52.272;5.136;2023-12-22T12:56:44;16.50;;;4.32;;
64199;SDS011;50516;52.272;5.136;2023-12-22T12:59:11;13.65;;;3.80;;
64199;SDS011;50516;52.272;5.136;2023-12-22T13:01:41;16.45;;;3.40;;
64199;SDS011;50516;52.272;5.136;2023-12-22T13:04:07;13.30;;;3.90;;
64199;SDS011;50516;52.272;5.136;2023-12-22T13:06:33;16.17;;;3.00;;
64199;SDS011;50516;52.272;5.136;2023-12-22T13:08:58;16.02;;;3.28;;
64199;SDS011;50516;52.272;5.136;2023-12-22T13:11:24;9.68;;;2.53;;
64199;SDS011;50516;52.272;5.136;2023-12-22T13:13:52;11.93;;;2.63;;
64199;SDS011;50516;52.272;5.136;2023-12-22T13:16:21;9.75;;;3.30;;
64199;SDS011;50516;52.272;5.136;2023-12-22T13:18:51;10.50;;;3.50;;
64199;SDS011;50516;52.272;5.136;2023-12-22T13:21:17;14.48;;;2.72;;
64199;SDS011;50516;52.272;5.136;2023-12-22T13:23:42;18.65;;;3.75;;
64199;SDS011;50516;52.272;5.136;2023-12-22T13:26:18;10.15;;;3.22;;
64199;SDS011;50516;52.272;5.136;2023-12-22T13:28:44;14.23;;;4.22;;
64199;SDS011;50516;52.272;5.136;2023-12-22T13:31:10;16.17;;;3.63;;
64199;SDS011;50516;52.272;5.136;2023-12-22T13:33:38;12.30;;;3.50;;
64199;SDS011;50516;52.272;5.136;2023-12-22T13:36:04;16.95;;;3.97;;
64199;SDS011;50516;52.272;5.136;2023-12-22T13:38:30;14.88;;;3.42;;
64199;SDS011;50516;52.272;5.136;2023-12-22T13:40:56;15.77;;;3.55;;
64199;SDS011;50516;52.272;5.136;2023-12-22T13:43:22;19.40;;;5.40;;
64199;SDS011;50516;52.272;5.136;2023-12-22T13:45:50;17.75;;;4.07;;
64199;SDS011;50516;52.272;5.136;2023-12-22T13:48:16;11.27;;;4.55;;
64199;SDS011;50516;52.272;5.136;2023-12-22T13:50:41;13.70;;;4.05;;
64199;SDS011;50516;52.272;5.136;2023-12-22T13:53:07;18.50;;;4.75;;
64199;SDS011;50516;52.272;5.136;2023-12-22T13:55:35;19.42;;;4.60;;
64199;SDS011;50516;52.272;5.136;2023-12-22T13:58:04;19.13;;;4.20;;
64199;SDS011;50516;52.272;5.136;2023-12-22T14:00:29;12.85;;;3.97;;
64199;SDS011;50516;52.272;5.136;2023-12-22T14:02:56;19.20;;;3.85;;
64199;SDS011;50516;52.272;5.136;2023-12-22T14:05:21;16.73;;;3.92;;
64199;SDS011;50516;52.272;5.136;2023-12-22T14:07:47;19.60;;;4.00;;
64199;SDS011;50516;52.272;5.136;2023-12-22T14:10:13;13.55;;;3.30;;
64199;SDS011;50516;52.272;5.136;2023-12-22T14:12:39;23.40;;;4.05;;
64199;SDS011;50516;52.272;5.136;2023-12-22T14:15:06;19.33;;;4.68;;
64199;SDS011;50516;52.272;5.136;2023-12-22T14:17:32;11.43;;;4.35;;
64199;SDS011;50516;52.272;5.136;2023-12-22T14:19:57;20.10;;;4.05;;
64199;SDS011;50516;52.272;5.136;2023-12-22T14:22:23;13.93;;;3.28;;
64199;SDS011;50516;52.272;5.136;2023-12-22T14:24:48;18.55;;;4.03;;
64199;SDS011;50516;52.272;5.136;2023-12-22T14:27:13;17.33;;;5.13;;
64199;SDS011;50516;52.272;5.136;2023-12-22T14:29:39;21.85;;;4.50;;
64199;SDS011;50516;52.272;5.136;2023-12-22T14:32:05;17.15;;;4.30;;
64199;SDS011;50516;52.272;5.136;2023-12-22T14:34:33;20.50;;;4.05;;
64199;SDS011;50516;52.272;5.136;2023-12-22T14:36:58;19.35;;;4.78;;